sensor_id;sensor_type;location;lat;lon;timestamp;P1;durP1;ratioP1;P2;durP2;ratioP2
5428;SDS011;2737;52.386;9.980;2023-05-02T00:00:12;2.90;;;1.43;;
5428;SDS011;2737;52.386;9.980;2023-05-02T00:02:40;3.50;;;1.20;;
5428;SDS011;2737;52.386;9.980;2023-05-02T00:05:07;3.60;;;1.57;;
5428;SDS011;2737;52.386;9.980;2023-05-02T00:07:34;3.27;;;1.37;;
5428;SDS011;2737;52.386;9.980;2023-05-02T00:10:04;2.10;;;1.40;;
5428;SDS011;2737;52.386;9.980;2023-05-02T00:12:32;4.20;;;1.10;;
5428;SDS011;2737;52.386;9.980;2023-05-02T00:15:00;4.00;;;1.70;;
5428;SDS011;2737;52.386;9.980;2023-05-02T00:17:27;2.53;;;1.40;;
5428;SDS011;2737;52.386;9.980;2023-05-02T00:19:54;2.37;;;1.50;;
5428;SDS011;2737;52.386;9.980;2023-05-02T00:22:21;2.13;;;1.50;;
5428;SDS011;2737;52.386;9.980;2023-05-02T00:24:48;3.87;;;2.13;;
5428;SDS011;2737;52.386;9.980;2023-05-02T00:27:16;3.80;;;1.47;;
5428;SDS011;2737;52.386;9.980;2023-05-02T00:29:43;10.33;;;2.03;;
5428;SDS011;2737;52.386;9.980;2023-05-02T00:32:11;3.50;;;2.00;;
5428;SDS011;2737;52.386;9.980;2023-05-02T00:34:39;9.93;;;2.60;;
5428;SDS011;2737;52.386;9.980;2023-05-02T00:37:06;8.77;;;2.77;;
5428;SDS011;2737;52.386;9.980;2023-05-02T00:39:33;9.87;;;3.10;;
5428;SDS011;2737;52.386;9.980;2023-05-02T00:42:00;9.80;;;2.67;;
5428;SDS011;2737;52.386;9.980;2023-05-02T00:44:29;10.40;;;2.40;;
5428;SDS011;2737;52.386;9.980;2023-05-02T00:46:56;7.27;;;2.20;;
5428;SDS011;2737;52.386;9.980;2023-05-02T00:49:26;3.93;;;1.97;;
5428;SDS011;2737;52.386;9.980;2023-05-02T00:51:53;5.23;;;2.00;;
5428;SDS011;2737;52.386;9.980;2023-05-02T00:54:20;4.00;;;1.60;;
5428;SDS011;2737;52.386;9.980;2023-05-02T00:56:47;3.37;;;1.50;;
5428;SDS011;2737;52.386;9.980;2023-05-02T00:59:14;3.70;;;1.83;;
5428;SDS011;2737;52.386;9.980;2023-05-02T01:01:47;2.73;;;1.80;;
5428;SDS011;2737;52.386;9.980;2023-05-02T01:04:23;2.13;;;1.40;;
5428;SDS011;2737;52.386;9.980;2023-05-02T01:07:02;4.67;;;1.40;;
5428;SDS011;2737;52.386;9.980;2023-05-02T01:09:51;3.00;;;1.67;;
5428;SDS011;2737;52.386;9.980;2023-05-02T01:12:30;2.33;;;1.50;;
5428;SDS011;2737;52.386;9.980;2023-05-02T01:15:04;4.90;;;1.80;;
5428;SDS011;2737;52.386;9.980;2023-05-02T01:17:37;6.27;;;2.17;;
5428;SDS011;2737;52.386;9.980;2023-05-02T01:20:07;4.33;;;2.30;;
5428;SDS011;2737;52.386;9.980;2023-05-02T01:22:38;7.43;;;2.03;;
5428;SDS011;2737;52.386;9.980;2023-05-02T01:25:09;4.40;;;2.23;;
5428;SDS011;2737;52.386;9.980;2023-05-02T01:27:46;4.60;;;2.70;;
5428;SDS011;2737;52.386;9.980;2023-05-02T01:30:23;7.53;;;2.90;;
5428;SDS011;2737;52.386;9.980;2023-05-02T01:32:55;7.20;;;2.90;;
5428;SDS011;2737;52.386;9.980;2023-05-02T01:35:24;5.10;;;3.10;;
5428;SDS011;2737;52.386;9.980;2023-05-02T01:37:53;9.00;;;3.50;;
5428;SDS011;2737;52.386;9.980;2023-05-02T01:40:23;9.30;;;3.47;;
5428;SDS011;2737;52.386;9.980;2023-05-02T01:42:51;9.47;;;4.20;;
5428;SDS011;2737;52.386;9.980;2023-05-02T01:45:20;5.73;;;4.03;;
5428;SDS011;2737;52.386;9.980;2023-05-02T01:47:50;8.10;;;3.90;;
5428;SDS011;2737;52.386;9.980;2023-05-02T01:50:19;7.00;;;4.30;;
5428;SDS011;2737;52.386;9.980;2023-05-02T01:52:48;6.10;;;4.13;;
5428;SDS011;2737;52.386;9.980;2023-05-02T01:55:18;6.83;;;4.37;;
5428;SDS011;2737;52.386;9.980;2023-05-02T01:57:45;9.63;;;4.30;;
5428;SDS011;2737;52.386;9.980;2023-05-02T02:00:15;14.23;;;5.33;;
5428;SDS011;2737;52.386;9.980;2023-05-02T02:02:44;6.53;;;4.90;;
5428;SDS011;2737;52.386;9.980;2023-05-02T02:05:14;8.27;;;5.60;;
5428;SDS011;2737;52.386;9.980;2023-05-02T02:07:42;9.60;;;4.87;;
5428;SDS011;2737;52.386;9.980;2023-05-02T02:10:09;7.10;;;5.10;;
5428;SDS011;2737;52.386;9.980;2023-05-02T02:12:39;14.53;;;6.10;;
5428;SDS011;2737;52.386;9.980;2023-05-02T02:15:09;11.87;;;5.40;;
5428;SDS011;2737;52.386;9.980;2023-05-02T02:17:42;9.07;;;5.93;;
5428;SDS011;2737;52.386;9.980;2023-05-02T02:20:16;13.23;;;6.50;;
5428;SDS011;2737;52.386;9.980;2023-05-02T02:22:44;8.97;;;6.00;;
5428;SDS011;2737;52.386;9.980;2023-05-02T02:25:13;14.37;;;7.50;;
5428;SDS011;2737;52.386;9.980;2023-05-02T02:27:41;11.40;;;6.90;;
5428;SDS011;2737;52.386;9.980;2023-05-02T02:30:09;11.73;;;7.13;;
5428;SDS011;2737;52.386;9.980;2023-05-02T02:32:37;11.20;;;6.87;;
5428;SDS011;2737;52.386;9.980;2023-05-02T02:35:05;14.23;;;7.57;;
5428;SDS011;2737;52.386;9.980;2023-05-02T02:37:36;9.90;;;6.70;;
5428;SDS011;2737;52.386;9.980;2023-05-02T02:40:08;12.17;;;7.07;;
5428;SDS011;2737;52.386;9.980;2023-05-02T02:42:44;12.20;;;8.00;;
5428;SDS011;2737;52.386;9.980;2023-05-02T02:45:19;15.73;;;9.53;;
5428;SDS011;2737;52.386;9.980;2023-05-02T02:47:57;17.00;;;10.03;;
5428;SDS011;2737;52.386;9.980;2023-05-02T02:50:32;18.50;;;10.20;;
5428;SDS011;2737;52.386;9.980;2023-05-02T02:53:05;20.27;;;11.37;;
5428;SDS011;2737;52.386;9.980;2023-05-02T02:55:37;17.30;;;10.90;;
5428;SDS011;2737;52.386;9.980;2023-05-02T02:58:14;19.60;;;11.50;;
5428;SDS011;2737;52.386;9.980;2023-05-02T03:00:50;18.93;;;11.70;;
5428;SDS011;2737;52.386;9.980;2023-05-02T03:03:17;21.17;;;11.10;;
5428;SDS011;2737;52.386;9.980;2023-05-02T03:05:49;19.33;;;10.90;;
5428;SDS011;2737;52.386;9.980;2023-05-02T03:08:19;22.67;;;12.23;;
5428;SDS011;2737;52.386;9.980;2023-05-02T03:10:46;24.20;;;13.13;;
5428;SDS011;2737;52.386;9.980;2023-05-02T03:13:13;20.77;;;13.37;;
5428;SDS011;2737;52.386;9.980;2023-05-02T03:15:47;26.30;;;14.30;;
5428;SDS011;2737;52.386;9.980;2023-05-02T03:18:39;28.23;;;15.23;;
5428;SDS011;2737;52.386;9.980;2023-05-02T03:21:06;25.80;;;14.13;;
5428;SDS011;2737;52.386;9.980;2023-05-02T03:23:35;25.80;;;14.13;;
5428;SDS011;2737;52.386;9.980;2023-05-02T03:26:02;23.10;;;14.07;;
5428;SDS011;2737;52.386;9.980;2023-05-02T03:28:29;22.80;;;14.40;;
5428;SDS011;2737;52.386;9.980;2023-05-02T03:30:56;25.27;;;13.90;;
5428;SDS011;2737;52.386;9.980;2023-05-02T03:33:23;27.77;;;16.90;;
5428;SDS011;2737;52.386;9.980;2023-05-02T03:35:50;24.10;;;14.03;;
5428;SDS011;2737;52.386;9.980;2023-05-02T03:38:17;25.07;;;14.73;;
5428;SDS011;2737;52.386;9.980;2023-05-02T03:40:46;24.97;;;14.60;;
5428;SDS011;2737;52.386;9.980;2023-05-02T03:43:13;24.40;;;13.73;;
5428;SDS011;2737;52.386;9.980;2023-05-02T03:45:40;24.63;;;13.97;;
5428;SDS011;2737;52.386;9.980;2023-05-02T03:48:07;26.80;;;13.17;;
5428;SDS011;2737;52.386;9.980;2023-05-02T03:50:34;21.17;;;12.37;;
5428;SDS011;2737;52.386;9.980;2023-05-02T03:53:01;19.80;;;12.47;;
5428;SDS011;2737;52.386;9.980;2023-05-02T03:55:28;25.50;;;13.73;;
5428;SDS011;2737;52.386;9.980;2023-05-02T03:57:56;21.87;;;13.10;;
5428;SDS011;2737;52.386;9.980;2023-05-02T04:00:23;23.10;;;13.53;;
5428;SDS011;2737;52.386;9.980;2023-05-02T04:02:50;23.43;;;14.20;;
5428;SDS011;2737;52.386;9.980;2023-05-02T04:05:17;22.70;;;13.27;;
5428;SDS011;2737;52.386;9.980;2023-05-02T04:07:44;22.97;;;13.40;;
5428;SDS011;2737;52.386;9.980;2023-05-02T04:10:12;28.43;;;15.63;;
5428;SDS011;2737;52.386;9.980;2023-05-02T04:12:40;25.60;;;13.90;;
5428;SDS011;2737;52.386;9.980;2023-05-02T04:15:10;31.00;;;15.07;;
5428;SDS011;2737;52.386;9.980;2023-05-02T04:17:37;24.10;;;14.27;;
5428;SDS011;2737;52.386;9.980;2023-05-02T04:20:04;26.17;;;15.07;;
5428;SDS011;2737;52.386;9.980;2023-05-02T04:22:32;29.40;;;15.40;;
5428;SDS011;2737;52.386;9.980;2023-05-02T04:25:00;22.93;;;13.47;;
5428;SDS011;2737;52.386;9.980;2023-05-02T04:27:27;23.77;;;13.93;;
5428;SDS011;2737;52.386;9.980;2023-05-02T04:29:54;22.37;;;13.73;;
5428;SDS011;2737;52.386;9.980;2023-05-02T04:32:22;26.23;;;13.90;;
5428;SDS011;2737;52.386;9.980;2023-05-02T04:34:49;23.63;;;13.03;;
5428;SDS011;2737;52.386;9.980;2023-05-02T04:37:17;22.67;;;12.73;;
5428;SDS011;2737;52.386;9.980;2023-05-02T04:39:44;23.63;;;13.00;;
5428;SDS011;2737;52.386;9.980;2023-05-02T04:42:10;22.03;;;11.90;;
5428;SDS011;2737;52.386;9.980;2023-05-02T04:44:37;24.20;;;13.27;;
5428;SDS011;2737;52.386;9.980;2023-05-02T04:47:04;22.33;;;12.70;;
5428;SDS011;2737;52.386;9.980;2023-05-02T04:49:33;22.57;;;12.10;;
5428;SDS011;2737;52.386;9.980;2023-05-02T04:52:00;24.23;;;13.43;;
5428;SDS011;2737;52.386;9.980;2023-05-02T04:54:27;25.67;;;13.63;;
5428;SDS011;2737;52.386;9.980;2023-05-02T04:56:54;25.57;;;13.60;;
5428;SDS011;2737;52.386;9.980;2023-05-02T04:59:21;26.97;;;13.80;;
5428;SDS011;2737;52.386;9.980;2023-05-02T05:01:48;22.27;;;13.60;;
5428;SDS011;2737;52.386;9.980;2023-05-02T05:04:15;27.60;;;14.30;;
5428;SDS011;2737;52.386;9.980;2023-05-02T05:06:43;23.90;;;13.07;;
5428;SDS011;2737;52.386;9.980;2023-05-02T05:09:11;27.13;;;14.17;;
5428;SDS011;2737;52.386;9.980;2023-05-02T05:11:38;25.03;;;14.50;;
5428;SDS011;2737;52.386;9.980;2023-05-02T05:14:07;28.77;;;14.40;;
5428;SDS011;2737;52.386;9.980;2023-05-02T05:16:34;27.97;;;15.50;;
5428;SDS011;2737;52.386;9.980;2023-05-02T05:19:01;26.23;;;13.57;;
5428;SDS011;2737;52.386;9.980;2023-05-02T05:21:29;23.73;;;11.93;;
5428;SDS011;2737;52.386;9.980;2023-05-02T05:23:57;19.53;;;9.60;;
5428;SDS011;2737;52.386;9.980;2023-05-02T05:26:24;19.43;;;9.50;;
5428;SDS011;2737;52.386;9.980;2023-05-02T05:28:51;16.37;;;8.90;;
5428;SDS011;2737;52.386;9.980;2023-05-02T05:31:18;13.67;;;8.03;;
5428;SDS011;2737;52.386;9.980;2023-05-02T05:33:47;7.43;;;5.30;;
5428;SDS011;2737;52.386;9.980;2023-05-02T05:36:14;6.60;;;4.37;;
5428;SDS011;2737;52.386;9.980;2023-05-02T05:38:41;5.60;;;3.83;;
5428;SDS011;2737;52.386;9.980;2023-05-02T05:41:10;5.60;;;3.33;;
5428;SDS011;2737;52.386;9.980;2023-05-02T05:43:37;3.57;;;2.60;;
5428;SDS011;2737;52.386;9.980;2023-05-02T05:46:04;5.30;;;2.17;;
5428;SDS011;2737;52.386;9.980;2023-05-02T05:48:31;3.73;;;2.00;;
5428;SDS011;2737;52.386;9.980;2023-05-02T05:51:01;4.13;;;2.03;;
5428;SDS011;2737;52.386;9.980;2023-05-02T05:53:30;3.77;;;1.70;;
5428;SDS011;2737;52.386;9.980;2023-05-02T05:55:57;4.90;;;2.10;;
5428;SDS011;2737;52.386;9.980;2023-05-02T05:58:25;3.97;;;1.80;;
5428;SDS011;2737;52.386;9.980;2023-05-02T06:00:52;5.17;;;1.83;;
5428;SDS011;2737;52.386;9.980;2023-05-02T06:03:20;4.23;;;1.97;;
5428;SDS011;2737;52.386;9.980;2023-05-02T06:05:47;4.97;;;1.90;;
5428;SDS011;2737;52.386;9.980;2023-05-02T06:08:13;3.37;;;1.63;;
5428;SDS011;2737;52.386;9.980;2023-05-02T06:10:40;3.17;;;1.73;;
5428;SDS011;2737;52.386;9.980;2023-05-02T06:13:07;2.70;;;1.83;;
5428;SDS011;2737;52.386;9.980;2023-05-02T06:15:36;8.43;;;2.23;;
5428;SDS011;2737;52.386;9.980;2023-05-02T06:18:03;4.00;;;1.90;;
5428;SDS011;2737;52.386;9.980;2023-05-02T06:20:30;4.60;;;2.07;;
5428;SDS011;2737;52.386;9.980;2023-05-02T06:22:57;3.00;;;1.70;;
5428;SDS011;2737;52.386;9.980;2023-05-02T06:25:24;9.87;;;2.50;;
5428;SDS011;2737;52.386;9.980;2023-05-02T06:27:51;5.57;;;2.80;;
5428;SDS011;2737;52.386;9.980;2023-05-02T06:30:18;5.40;;;2.50;;
5428;SDS011;2737;52.386;9.980;2023-05-02T06:32:46;12.13;;;3.00;;
5428;SDS011;2737;52.386;9.980;2023-05-02T06:35:13;7.87;;;2.73;;
5428;SDS011;2737;52.386;9.980;2023-05-02T06:37:40;10.00;;;2.90;;
5428;SDS011;2737;52.386;9.980;2023-05-02T06:40:08;15.50;;;3.27;;
5428;SDS011;2737;52.386;9.980;2023-05-02T06:42:35;13.10;;;3.60;;
5428;SDS011;2737;52.386;9.980;2023-05-02T06:45:03;18.13;;;3.93;;
5428;SDS011;2737;52.386;9.980;2023-05-02T06:47:31;14.97;;;3.40;;
5428;SDS011;2737;52.386;9.980;2023-05-02T06:49:59;10.43;;;2.63;;
5428;SDS011;2737;52.386;9.980;2023-05-02T06:52:27;15.13;;;4.37;;
5428;SDS011;2737;52.386;9.980;2023-05-02T06:54:54;11.87;;;3.47;;
5428;SDS011;2737;52.386;9.980;2023-05-02T06:57:21;15.50;;;4.70;;
5428;SDS011;2737;52.386;9.980;2023-05-02T06:59:48;13.13;;;3.53;;
5428;SDS011;2737;52.386;9.980;2023-05-02T07:02:15;17.23;;;3.70;;
5428;SDS011;2737;52.386;9.980;2023-05-02T07:04:42;20.73;;;4.20;;
5428;SDS011;2737;52.386;9.980;2023-05-02T07:07:11;18.93;;;4.77;;
5428;SDS011;2737;52.386;9.980;2023-05-02T07:09:39;21.00;;;3.80;;
5428;SDS011;2737;52.386;9.980;2023-05-02T07:12:06;13.90;;;3.73;;
5428;SDS011;2737;52.386;9.980;2023-05-02T07:14:33;29.47;;;4.87;;
5428;SDS011;2737;52.386;9.980;2023-05-02T07:17:00;17.80;;;3.90;;
5428;SDS011;2737;52.386;9.980;2023-05-02T07:19:27;12.87;;;4.27;;
5428;SDS011;2737;52.386;9.980;2023-05-02T07:21:54;12.40;;;3.33;;
5428;SDS011;2737;52.386;9.980;2023-05-02T07:24:23;14.37;;;2.70;;
5428;SDS011;2737;52.386;9.980;2023-05-02T07:26:50;20.57;;;3.73;;
5428;SDS011;2737;52.386;9.980;2023-05-02T07:29:17;14.10;;;3.30;;
5428;SDS011;2737;52.386;9.980;2023-05-02T07:31:44;16.87;;;4.00;;
5428;SDS011;2737;52.386;9.980;2023-05-02T07:34:11;14.00;;;3.10;;
5428;SDS011;2737;52.386;9.980;2023-05-02T07:36:38;23.73;;;3.70;;
5428;SDS011;2737;52.386;9.980;2023-05-02T07:39:05;14.67;;;3.20;;
5428;SDS011;2737;52.386;9.980;2023-05-02T07:41:33;11.60;;;3.10;;
5428;SDS011;2737;52.386;9.980;2023-05-02T07:44:00;14.00;;;3.83;;
5428;SDS011;2737;52.386;9.980;2023-05-02T07:46:27;11.23;;;2.57;;
5428;SDS011;2737;52.386;9.980;2023-05-02T07:48:55;18.23;;;2.80;;
5428;SDS011;2737;52.386;9.980;2023-05-02T07:51:22;11.33;;;3.00;;
5428;SDS011;2737;52.386;9.980;2023-05-02T07:53:50;9.90;;;2.37;;
5428;SDS011;2737;52.386;9.980;2023-05-02T07:56:19;16.93;;;2.70;;
5428;SDS011;2737;52.386;9.980;2023-05-02T07:58:48;16.33;;;3.47;;
5428;SDS011;2737;52.386;9.980;2023-05-02T08:01:15;16.10;;;2.90;;
5428;SDS011;2737;52.386;9.980;2023-05-02T08:03:43;10.60;;;2.47;;
5428;SDS011;2737;52.386;9.980;2023-05-02T08:06:10;19.27;;;3.20;;
5428;SDS011;2737;52.386;9.980;2023-05-02T08:08:37;12.87;;;2.30;;
5428;SDS011;2737;52.386;9.980;2023-05-02T08:11:04;11.70;;;2.70;;
5428;SDS011;2737;52.386;9.980;2023-05-02T08:13:31;9.63;;;2.53;;
5428;SDS011;2737;52.386;9.980;2023-05-02T08:16:00;12.53;;;2.10;;
5428;SDS011;2737;52.386;9.980;2023-05-02T08:18:27;10.20;;;2.47;;
5428;SDS011;2737;52.386;9.980;2023-05-02T08:20:54;9.70;;;2.87;;
5428;SDS011;2737;52.386;9.980;2023-05-02T08:23:22;6.63;;;2.23;;
5428;SDS011;2737;52.386;9.980;2023-05-02T08:25:49;22.73;;;2.90;;
5428;SDS011;2737;52.386;9.980;2023-05-02T08:28:16;13.93;;;2.57;;
5428;SDS011;2737;52.386;9.980;2023-05-02T08:30:44;16.87;;;3.33;;
5428;SDS011;2737;52.386;9.980;2023-05-02T08:33:12;17.00;;;2.80;;
5428;SDS011;2737;52.386;9.980;2023-05-02T08:35:39;10.90;;;2.60;;
5428;SDS011;2737;52.386;9.980;2023-05-02T08:38:06;7.83;;;2.40;;
5428;SDS011;2737;52.386;9.980;2023-05-02T08:40:34;13.57;;;2.23;;
5428;SDS011;2737;52.386;9.980;2023-05-02T08:43:02;11.13;;;2.47;;
5428;SDS011;2737;52.386;9.980;2023-05-02T08:45:29;14.27;;;2.63;;
5428;SDS011;2737;52.386;9.980;2023-05-02T08:48:02;15.07;;;2.20;;
5428;SDS011;2737;52.386;9.980;2023-05-02T08:50:33;9.53;;;2.37;;
5428;SDS011;2737;52.386;9.980;2023-05-02T08:53:03;8.63;;;1.93;;
5428;SDS011;2737;52.386;9.980;2023-05-02T08:55:31;8.33;;;1.90;;
5428;SDS011;2737;52.386;9.980;2023-05-02T08:57:59;7.33;;;2.17;;
5428;SDS011;2737;52.386;9.980;2023-05-02T09:00:28;4.53;;;1.97;;
5428;SDS011;2737;52.386;9.980;2023-05-02T09:02:59;6.90;;;1.90;;
5428;SDS011;2737;52.386;9.980;2023-05-02T09:05:34;7.57;;;2.17;;
5428;SDS011;2737;52.386;9.980;2023-05-02T09:08:06;8.10;;;1.93;;
5428;SDS011;2737;52.386;9.980;2023-05-02T09:10:33;4.30;;;1.73;;
5428;SDS011;2737;52.386;9.980;2023-05-02T09:15:55;10.10;;;1.87;;
5428;SDS011;2737;52.386;9.980;2023-05-02T09:18:24;14.73;;;3.00;;
5428;SDS011;2737;52.386;9.980;2023-05-02T09:20:55;9.90;;;2.00;;
5428;SDS011;2737;52.386;9.980;2023-05-02T09:23:33;5.33;;;1.83;;
5428;SDS011;2737;52.386;9.980;2023-05-02T09:26:01;9.70;;;2.27;;
5428;SDS011;2737;52.386;9.980;2023-05-02T09:28:37;6.97;;;1.90;;
5428;SDS011;2737;52.386;9.980;2023-05-02T09:31:05;13.03;;;2.43;;
5428;SDS011;2737;52.386;9.980;2023-05-02T09:33:33;8.73;;;2.30;;
5428;SDS011;2737;52.386;9.980;2023-05-02T09:36:02;12.00;;;2.20;;
5428;SDS011;2737;52.386;9.980;2023-05-02T09:38:31;6.77;;;2.03;;
5428;SDS011;2737;52.386;9.980;2023-05-02T09:40:58;14.93;;;2.60;;
5428;SDS011;2737;52.386;9.980;2023-05-02T09:43:27;9.33;;;2.17;;
5428;SDS011;2737;52.386;9.980;2023-05-02T09:45:56;6.43;;;1.97;;
5428;SDS011;2737;52.386;9.980;2023-05-02T09:48:24;12.83;;;2.07;;
5428;SDS011;2737;52.386;9.980;2023-05-02T09:50:52;12.50;;;2.07;;
5428;SDS011;2737;52.386;9.980;2023-05-02T09:53:21;11.40;;;1.67;;
5428;SDS011;2737;52.386;9.980;2023-05-02T09:55:58;5.20;;;1.90;;
5428;SDS011;2737;52.386;9.980;2023-05-02T09:58:26;4.90;;;1.40;;
5428;SDS011;2737;52.386;9.980;2023-05-02T10:00:55;5.83;;;2.13;;
5428;SDS011;2737;52.386;9.980;2023-05-02T10:03:23;8.37;;;2.33;;
5428;SDS011;2737;52.386;9.980;2023-05-02T10:05:50;6.93;;;2.07;;
5428;SDS011;2737;52.386;9.980;2023-05-02T10:08:19;6.93;;;2.10;;
5428;SDS011;2737;52.386;9.980;2023-05-02T10:10:51;13.10;;;2.40;;
5428;SDS011;2737;52.386;9.980;2023-05-02T10:13:20;6.63;;;1.90;;
5428;SDS011;2737;52.386;9.980;2023-05-02T10:15:49;3.30;;;1.80;;
5428;SDS011;2737;52.386;9.980;2023-05-02T10:18:20;12.23;;;2.00;;
5428;SDS011;2737;52.386;9.980;2023-05-02T10:20:55;5.70;;;2.07;;
5428;SDS011;2737;52.386;9.980;2023-05-02T10:23:28;13.03;;;2.20;;
5428;SDS011;2737;52.386;9.980;2023-05-02T10:25:59;10.70;;;2.17;;
5428;SDS011;2737;52.386;9.980;2023-05-02T10:28:26;8.10;;;1.80;;
5428;SDS011;2737;52.386;9.980;2023-05-02T10:30:53;8.40;;;2.03;;
5428;SDS011;2737;52.386;9.980;2023-05-02T10:33:21;8.80;;;1.97;;
5428;SDS011;2737;52.386;9.980;2023-05-02T10:35:48;6.13;;;1.63;;
5428;SDS011;2737;52.386;9.980;2023-05-02T10:38:16;7.63;;;1.67;;
5428;SDS011;2737;52.386;9.980;2023-05-02T10:40:50;7.07;;;2.50;;
5428;SDS011;2737;52.386;9.980;2023-05-02T10:43:21;18.03;;;2.83;;
5428;SDS011;2737;52.386;9.980;2023-05-02T10:45:51;10.23;;;2.60;;
5428;SDS011;2737;52.386;9.980;2023-05-02T10:48:19;12.33;;;2.40;;
5428;SDS011;2737;52.386;9.980;2023-05-02T10:50:49;9.93;;;2.60;;
5428;SDS011;2737;52.386;9.980;2023-05-02T10:53:24;9.57;;;2.97;;
5428;SDS011;2737;52.386;9.980;2023-05-02T10:56:19;5.43;;;2.20;;
5428;SDS011;2737;52.386;9.980;2023-05-02T10:58:47;14.80;;;4.10;;
5428;SDS011;2737;52.386;9.980;2023-05-02T11:04:06;7.53;;;3.07;;
5428;SDS011;2737;52.386;9.980;2023-05-02T11:06:35;11.70;;;3.23;;
5428;SDS011;2737;52.386;9.980;2023-05-02T11:12:00;10.67;;;2.40;;
5428;SDS011;2737;52.386;9.980;2023-05-02T11:14:42;19.17;;;2.70;;
5428;SDS011;2737;52.386;9.980;2023-05-02T11:17:12;5.53;;;2.63;;
5428;SDS011;2737;52.386;9.980;2023-05-02T11:22:50;7.30;;;2.90;;
5428;SDS011;2737;52.386;9.980;2023-05-02T11:25:28;4.93;;;2.60;;
5428;SDS011;2737;52.386;9.980;2023-05-02T11:28:04;7.20;;;2.60;;
5428;SDS011;2737;52.386;9.980;2023-05-02T11:30:39;9.53;;;2.70;;
5428;SDS011;2737;52.386;9.980;2023-05-02T11:33:18;7.83;;;2.90;;
5428;SDS011;2737;52.386;9.980;2023-05-02T11:35:46;6.77;;;2.43;;
5428;SDS011;2737;52.386;9.980;2023-05-02T11:38:14;17.03;;;2.93;;
5428;SDS011;2737;52.386;9.980;2023-05-02T11:40:49;9.40;;;2.83;;
5428;SDS011;2737;52.386;9.980;2023-05-02T11:43:25;6.63;;;2.43;;
5428;SDS011;2737;52.386;9.980;2023-05-02T11:45:53;11.60;;;2.90;;
5428;SDS011;2737;52.386;9.980;2023-05-02T11:48:22;11.03;;;3.70;;
5428;SDS011;2737;52.386;9.980;2023-05-02T11:50:52;4.90;;;2.70;;
5428;SDS011;2737;52.386;9.980;2023-05-02T11:53:21;12.07;;;2.47;;
5428;SDS011;2737;52.386;9.980;2023-05-02T11:55:49;11.10;;;2.60;;
5428;SDS011;2737;52.386;9.980;2023-05-02T11:58:18;7.33;;;2.53;;
5428;SDS011;2737;52.386;9.980;2023-05-02T12:00:48;8.40;;;2.90;;
5428;SDS011;2737;52.386;9.980;2023-05-02T12:06:08;11.23;;;3.00;;
5428;SDS011;2737;52.386;9.980;2023-05-02T12:08:36;18.97;;;5.17;;
5428;SDS011;2737;52.386;9.980;2023-05-02T12:11:03;8.63;;;2.67;;
5428;SDS011;2737;52.386;9.980;2023-05-02T12:13:31;10.73;;;2.73;;
5428;SDS011;2737;52.386;9.980;2023-05-02T12:15:59;13.03;;;2.90;;
5428;SDS011;2737;52.386;9.980;2023-05-02T12:18:27;13.63;;;2.63;;
5428;SDS011;2737;52.386;9.980;2023-05-02T12:20:54;14.70;;;2.60;;
5428;SDS011;2737;52.386;9.980;2023-05-02T12:23:23;12.47;;;2.77;;
5428;SDS011;2737;52.386;9.980;2023-05-02T12:25:51;10.67;;;2.97;;
5428;SDS011;2737;52.386;9.980;2023-05-02T12:28:18;7.27;;;2.63;;
5428;SDS011;2737;52.386;9.980;2023-05-02T12:30:48;4.73;;;2.53;;
5428;SDS011;2737;52.386;9.980;2023-05-02T12:33:17;10.10;;;3.10;;
5428;SDS011;2737;52.386;9.980;2023-05-02T12:35:44;8.30;;;2.70;;
5428;SDS011;2737;52.386;9.980;2023-05-02T12:38:13;14.13;;;2.50;;
5428;SDS011;2737;52.386;9.980;2023-05-02T12:40:48;9.30;;;3.27;;
5428;SDS011;2737;52.386;9.980;2023-05-02T12:43:17;8.50;;;3.10;;
5428;SDS011;2737;52.386;9.980;2023-05-02T12:45:44;10.47;;;2.73;;
5428;SDS011;2737;52.386;9.980;2023-05-02T12:48:21;7.13;;;2.90;;
5428;SDS011;2737;52.386;9.980;2023-05-02T12:50:49;8.10;;;2.90;;
5428;SDS011;2737;52.386;9.980;2023-05-02T12:53:17;8.20;;;3.30;;
5428;SDS011;2737;52.386;9.980;2023-05-02T12:56:04;17.07;;;3.90;;
5428;SDS011;2737;52.386;9.980;2023-05-02T12:58:39;6.77;;;3.37;;
5428;SDS011;2737;52.386;9.980;2023-05-02T13:01:07;14.37;;;3.77;;
5428;SDS011;2737;52.386;9.980;2023-05-02T13:03:36;8.33;;;2.80;;
5428;SDS011;2737;52.386;9.980;2023-05-02T13:06:04;5.73;;;2.90;;
5428;SDS011;2737;52.386;9.980;2023-05-02T13:08:31;6.77;;;2.33;;
5428;SDS011;2737;52.386;9.980;2023-05-02T13:10:59;8.70;;;3.13;;
5428;SDS011;2737;52.386;9.980;2023-05-02T13:13:26;9.03;;;2.83;;
5428;SDS011;2737;52.386;9.980;2023-05-02T13:15:54;5.33;;;2.60;;
5428;SDS011;2737;52.386;9.980;2023-05-02T13:18:21;4.33;;;2.17;;
5428;SDS011;2737;52.386;9.980;2023-05-02T13:20:49;8.57;;;2.60;;
5428;SDS011;2737;52.386;9.980;2023-05-02T13:23:16;4.87;;;2.27;;
5428;SDS011;2737;52.386;9.980;2023-05-02T13:25:43;5.30;;;2.00;;
5428;SDS011;2737;52.386;9.980;2023-05-02T13:28:10;13.20;;;2.57;;
5428;SDS011;2737;52.386;9.980;2023-05-02T13:30:37;3.20;;;1.70;;
5428;SDS011;2737;52.386;9.980;2023-05-02T13:33:04;11.50;;;2.60;;
5428;SDS011;2737;52.386;9.980;2023-05-02T13:35:31;13.93;;;2.40;;
5428;SDS011;2737;52.386;9.980;2023-05-02T13:37:59;4.83;;;2.53;;
5428;SDS011;2737;52.386;9.980;2023-05-02T13:40:27;5.40;;;1.87;;
5428;SDS011;2737;52.386;9.980;2023-05-02T13:43:02;4.10;;;1.70;;
5428;SDS011;2737;52.386;9.980;2023-05-02T13:45:29;6.93;;;2.27;;
5428;SDS011;2737;52.386;9.980;2023-05-02T13:47:56;7.43;;;1.87;;
5428;SDS011;2737;52.386;9.980;2023-05-02T13:50:23;4.77;;;2.10;;
5428;SDS011;2737;52.386;9.980;2023-05-02T13:52:50;8.70;;;1.80;;
5428;SDS011;2737;52.386;9.980;2023-05-02T13:55:16;2.90;;;1.80;;
5428;SDS011;2737;52.386;9.980;2023-05-02T13:57:43;5.43;;;1.93;;
5428;SDS011;2737;52.386;9.980;2023-05-02T14:00:13;3.40;;;1.80;;
5428;SDS011;2737;52.386;9.980;2023-05-02T14:02:40;4.77;;;2.17;;
5428;SDS011;2737;52.386;9.980;2023-05-02T14:05:07;3.93;;;2.33;;
5428;SDS011;2737;52.386;9.980;2023-05-02T14:07:35;9.23;;;2.07;;
5428;SDS011;2737;52.386;9.980;2023-05-02T14:10:02;5.27;;;1.77;;
5428;SDS011;2737;52.386;9.980;2023-05-02T14:12:29;7.37;;;1.43;;
5428;SDS011;2737;52.386;9.980;2023-05-02T14:14:56;7.87;;;1.70;;
5428;SDS011;2737;52.386;9.980;2023-05-02T14:17:25;6.80;;;1.10;;
5428;SDS011;2737;52.386;9.980;2023-05-02T14:19:52;2.40;;;1.13;;
5428;SDS011;2737;52.386;9.980;2023-05-02T14:22:19;3.60;;;1.80;;
5428;SDS011;2737;52.386;9.980;2023-05-02T14:24:46;8.40;;;2.03;;
5428;SDS011;2737;52.386;9.980;2023-05-02T14:27:13;5.03;;;1.63;;
5428;SDS011;2737;52.386;9.980;2023-05-02T14:29:42;10.70;;;1.60;;
5428;SDS011;2737;52.386;9.980;2023-05-02T14:32:09;12.27;;;1.97;;
5428;SDS011;2737;52.386;9.980;2023-05-02T14:34:38;3.13;;;1.33;;
5428;SDS011;2737;52.386;9.980;2023-05-02T14:37:06;4.90;;;1.30;;
5428;SDS011;2737;52.386;9.980;2023-05-02T14:39:34;6.30;;;1.30;;
5428;SDS011;2737;52.386;9.980;2023-05-02T14:42:01;3.40;;;1.30;;
5428;SDS011;2737;52.386;9.980;2023-05-02T14:44:28;2.70;;;1.23;;
5428;SDS011;2737;52.386;9.980;2023-05-02T14:46:55;1.83;;;0.90;;
5428;SDS011;2737;52.386;9.980;2023-05-02T14:49:22;2.70;;;1.20;;
5428;SDS011;2737;52.386;9.980;2023-05-02T14:51:51;3.43;;;1.10;;
5428;SDS011;2737;52.386;9.980;2023-05-02T14:54:18;14.93;;;1.23;;
5428;SDS011;2737;52.386;9.980;2023-05-02T14:56:46;4.97;;;1.30;;
5428;SDS011;2737;52.386;9.980;2023-05-02T14:59:16;5.03;;;1.40;;
5428;SDS011;2737;52.386;9.980;2023-05-02T15:01:42;7.50;;;1.20;;
5428;SDS011;2737;52.386;9.980;2023-05-02T15:04:09;2.70;;;1.20;;
5428;SDS011;2737;52.386;9.980;2023-05-02T15:06:36;3.57;;;1.63;;
5428;SDS011;2737;52.386;9.980;2023-05-02T15:09:05;4.83;;;1.80;;
5428;SDS011;2737;52.386;9.980;2023-05-02T15:11:32;4.40;;;1.30;;
5428;SDS011;2737;52.386;9.980;2023-05-02T15:13:59;7.30;;;1.73;;
5428;SDS011;2737;52.386;9.980;2023-05-02T15:16:26;2.03;;;1.27;;
5428;SDS011;2737;52.386;9.980;2023-05-02T15:18:54;3.57;;;1.33;;
5428;SDS011;2737;52.386;9.980;2023-05-02T15:21:21;5.43;;;1.77;;
5428;SDS011;2737;52.386;9.980;2023-05-02T15:23:48;2.47;;;1.27;;
5428;SDS011;2737;52.386;9.980;2023-05-02T15:26:16;2.33;;;1.20;;
5428;SDS011;2737;52.386;9.980;2023-05-02T15:28:43;4.93;;;1.20;;
5428;SDS011;2737;52.386;9.980;2023-05-02T15:31:10;5.83;;;1.20;;